Andrea — ZDIS8 — position and weather

sailwx.info

Track history (hours):
 
Tides and Currents Weather Stations Pressure Air Temp Water Temp Dewpoint Dewpoint Depression Visibility Wind Speed Wind Dir Waves Ship Positions

Andrea

Last reported at 2018-Feb-22 09:59 UTC. Time now 2018-Feb-22 10:39 UTC.
Position N 56°06' E 016°52'.

Length 134 m; draft 7.1 m.

Type: Cargo ship. MMSI: 236481000.

Date/timePositionNaut miles runAvg speedWind from/ knotsBaromVisibWave heightAir tempDewpointWater temp
2018-Feb-22 09:59N 56°06' E 016°52'715.4
2018-Feb-22 09:30N 56°01' E 016°42'815.2
2018-Feb-22 09:00N 55°58' E 016°30'815.1
2018-Feb-22 08:30N 55°54' E 016°18'715.0
2018-Feb-22 08:00N 55°51' E 016°06'714.8
2018-Feb-22 07:31N 55°47' E 015°55'714.9
2018-Feb-22 07:00N 55°44' E 015°43'815.1
2018-Feb-22 06:30N 55°40' E 015°31'715.1
2018-Feb-22 06:00N 55°37' E 015°20'715.0
2018-Feb-22 05:30N 55°33' E 015°09'814.8
2018-Feb-22 04:59N 55°29' E 014°57'714.6
2018-Feb-22 04:30N 55°26' E 014°45'714.1
2018-Feb-22 04:00N 55°22' E 014°36'714.4
2018-Feb-22 03:30N 55°16' E 014°28'714.5
2018-Feb-22 03:00N 55°10' E 014°21'714.5
2018-Feb-22 02:30N 55°04' E 014°13'5514.8
2018-Feb-21 22:48N 54°45' E 012°44'1615.4
2018-Feb-21 21:44N 54°36' E 012°20'415.2
2018-Feb-21 21:30N 54°33' E 012°17'815.4
2018-Feb-21 21:00N 54°26' E 012°12'1515.2
2018-Feb-21 20:02N 54°24' E 011°46'015.8
2018-Feb-21 20:00N 54°24' E 011°46'815.4
2018-Feb-21 19:30N 54°28' E 011°34'815.6
2018-Feb-21 19:00N 54°32' E 011°22'815.1
2018-Feb-21 18:30N 54°35' E 011°10'815.2
2018-Feb-21 18:00N 54°34' E 010°57'815.9
2018-Feb-21 17:30N 54°34' E 010°44'815.6
2018-Feb-21 17:00N 54°32' E 010°30'914.1
2018-Feb-21 16:23N 54°29' E 010°16'13 6.0
2018-Feb-21 14:17N 54°21' E 009°60'2 7.8
2018-Feb-21 13:59N 54°21' E 009°56'4 8.3
2018-Feb-21 13:31N 54°22' E 009°49'4 7.9
2018-Feb-21 13:01N 54°20' E 009°44'4 7.2
2018-Feb-21 12:31N 54°17' E 009°39'2 4.0
2018-Feb-21 11:58N 54°15' E 009°37'3 7.4
2018-Feb-21 11:31N 54°12' E 009°34'3 6.4
2018-Feb-21 11:01N 54°11' E 009°29'4 8.3
2018-Feb-21 10:31N 54°09' E 009°23'3 5.6
2018-Feb-21 10:00N 54°07' E 009°20'4 8.5
2018-Feb-21 09:30N 54°03' E 009°18'4 7.2
2018-Feb-21 09:01N 53°60' E 009°17'4 8.3
2018-Feb-21 08:31N 53°56' E 009°13'4 7.4
2018-Feb-21 08:01N 53°54' E 009°09'0 0.2
2018-Feb-21 07:31N 53°54' E 009°09'2 3.2
2018-Feb-21 07:01N 53°53' E 009°06'3 5.7
2018-Feb-21 06:30N 53°52' E 009°02'713.4
2018-Feb-21 06:00N 53°50' E 008°51'611.7
2018-Feb-21 05:30N 53°53' E 008°42'714.0
2018-Feb-21 05:00N 53°58' E 008°33'714.6
2018-Feb-21 04:30N 53°59' E 008°21'713.8
2018-Feb-21 04:00N 53°60' E 008°09'9215.8
2018-Feb-20 22:11N 53°36' E 005°39'517.4
2018-Feb-20 21:56N 53°35' E 005°32'717.5
2018-Feb-20 21:30N 53°33' E 005°20'918.0
2018-Feb-20 21:00N 53°30' E 005°05'918.0
2018-Feb-20 20:29N 53°27' E 004°51'817.5
2018-Feb-20 20:00N 53°20' E 004°41'918.1
2018-Feb-20 19:30N 53°12' E 004°35'918.2
2018-Feb-20 19:00N 53°05' E 004°27'917.8
2018-Feb-20 18:30N 52°57' E 004°20'917.9
2018-Feb-20 18:00N 52°49' E 004°12'917.4
2018-Feb-20 17:29N 52°41' E 004°04'817.6
2018-Feb-20 17:00N 52°34' E 003°58'917.5
2018-Feb-20 16:30N 52°26' E 003°53'917.3
2018-Feb-20 16:00N 52°17' E 003°52'917.4
2018-Feb-20 15:30N 52°09' E 003°54'713.5
2018-Feb-20 15:00N 52°02' E 003°55'815.1
2018-Feb-20 14:30N 51°59' E 004°06'612.9
2018-Feb-20 14:00N 51°55' E 004°15'611.1
2018-Feb-20 13:30N 51°54' E 004°23'2 3.1
2018-Feb-20 13:00N 51°53' E 004°26'0 0.0
2018-Feb-20 12:30N 51°53' E 004°26'0 0.0
2018-Feb-20 12:00N 51°53' E 004°26'0 0.0
2018-Feb-20 11:30N 51°53' E 004°26'0 0.0
2018-Feb-20 11:00N 51°53' E 004°26'0 0.0
2018-Feb-20 10:30N 51°53' E 004°26'0 0.0
2018-Feb-20 10:00N 51°53' E 004°26'0 0.0
2018-Feb-20 09:30N 51°53' E 004°26'0 0.0
2018-Feb-20 09:00N 51°53' E 004°26'0 0.0
2018-Feb-20 08:30N 51°53' E 004°26'0 0.0
2018-Feb-20 08:00N 51°53' E 004°26'0 0.0
2018-Feb-20 07:30N 51°53' E 004°26'0 0.0
2018-Feb-20 07:00N 51°53' E 004°26'0 0.0
2018-Feb-20 06:30N 51°53' E 004°26'0 0.0
2018-Feb-20 06:00N 51°53' E 004°26'0 0.0
2018-Feb-20 05:30N 51°53' E 004°26'0 0.8
2018-Feb-20 05:00N 51°54' E 004°26'4 7.3
2018-Feb-20 04:30N 51°54' E 004°20'611.8
2018-Feb-20 04:00N 51°56' E 004°12'815.5
2018-Feb-20 03:30N 51°60' E 004°00'713.9
2018-Feb-20 03:00N 52°00' E 003°49'611.8
2018-Feb-20 02:30N 51°58' E 003°40'610.9
2018-Feb-20 01:59N 51°57' E 003°31'510.3
2018-Feb-20 01:30N 51°55' E 003°23'510.3
2018-Feb-20 00:59N 51°53' E 003°15'510.8
2018-Feb-20 00:30N 51°52' E 003°07'711.3
2018-Feb-19 23:55N 51°50' E 002°57'1411.3
2018-Feb-19 22:42N 51°46' E 002°36'211.6
2018-Feb-19 22:30N 51°44' E 002°33'611.5
2018-Feb-19 22:00N 51°40' E 002°27'611.6
2018-Feb-19 21:30N 51°36' E 002°21'611.9
2018-Feb-19 21:00N 51°31' E 002°16'612.3
2018-Feb-19 20:30N 51°25' E 002°12'713.7
2018-Feb-19 20:01N 51°19' E 002°07'713.2
2018-Feb-19 19:30N 51°13' E 002°02'713.5
2018-Feb-19 19:01N 51°10' E 001°52'815.2
2018-Feb-19 18:30N 51°06' E 001°42'816.1
2018-Feb-19 18:00N 51°00' E 001°33'816.2
2018-Feb-19 17:30N 50°53' E 001°26'3415.8
2018-Feb-19 15:20N 50°29' E 000°48'616.9
2018-Feb-19 14:59N 50°28' E 000°38'1116.8
2018-Feb-19 14:19N 50°25' E 000°22'516.9
2018-Feb-19 14:00N 50°24' E 000°14'917.1
2018-Feb-19 13:30N 50°22' E 000°01'917.1
2018-Feb-19 13:00N 50°24' W 000°12'1617.7
2018-Feb-19 12:06N 50°32' W 000°34'217.9
2018-Feb-19 12:00N 50°33' W 000°37'918.1
2018-Feb-19 11:30N 50°38' W 000°48'816.8
2018-Feb-19 11:01N 50°43' W 000°59'611.8
2018-Feb-19 10:31N 50°47' W 001°06'2 4.0
2018-Feb-19 10:01N 50°49' W 001°06'0 0.0
2018-Feb-19 09:28N 50°49' W 001°06'0 0.0
2018-Feb-19 08:58N 50°49' W 001°06'0 0.0
2018-Feb-19 08:28N 50°49' W 001°06'0 0.0
2018-Feb-19 07:58N 50°49' W 001°06'0 0.0
2018-Feb-19 07:28N 50°49' W 001°06'0 0.0
2018-Feb-19 06:58N 50°49' W 001°06'0 0.0
2018-Feb-19 06:28N 50°49' W 001°06'0 0.0
2018-Feb-19 05:58N 50°49' W 001°06'0 0.0
2018-Feb-19 05:28N 50°49' W 001°06'0 0.0
2018-Feb-19 04:58N 50°49' W 001°06'0 0.0
2018-Feb-19 04:28N 50°49' W 001°06'0 0.0
2018-Feb-19 03:58N 50°49' W 001°06'0 0.0
2018-Feb-19 03:28N 50°49' W 001°06'0 0.0
2018-Feb-19 02:58N 50°49' W 001°06'0 0.0
2018-Feb-19 02:28N 50°49' W 001°06'0 0.0
2018-Feb-19 01:58N 50°49' W 001°06'0 0.0
2018-Feb-19 01:28N 50°49' W 001°06'0 0.0
2018-Feb-19 00:58N 50°49' W 001°06'0 0.1
2018-Feb-19 00:30N 50°49' W 001°06'2 3.7
2018-Feb-19 00:00N 50°47' W 001°06'4 8.5
2018-Feb-18 23:30N 50°44' W 001°02'3 6.9
2018-Feb-18 23:00N 50°41' W 000°58'713.8
2018-Feb-18 22:31N 50°34' W 000°58'1916.8
2018-Feb-18 21:23N 50°15' W 000°58'719.5
2018-Feb-18 21:00N 50°13' W 001°08'1019.5
2018-Feb-18 20:31N 50°10' W 001°23'1019.4
2018-Feb-18 20:00N 50°08' W 001°38'714.5
2018-Feb-18 19:31N 50°05' W 001°49'1 2.1
2018-Feb-18 19:00N 50°05' W 001°50'4 7.9
2018-Feb-18 18:30N 50°03' W 001°55'815.7
2018-Feb-18 18:00N 49°59' W 002°06'815.0
2018-Feb-18 17:30N 49°57' W 002°17'714.7
2018-Feb-18 17:01N 49°55' W 002°28'814.5
2018-Feb-18 16:28N 49°52' W 002°39'714.9
2018-Feb-18 16:01N 49°49' W 002°49'1215.1
2018-Feb-18 15:13N 49°43' W 003°05'614.7
2018-Feb-18 14:48N 49°41' W 003°13'414.0
2018-Feb-18 14:30N 49°38' W 003°19'9214.2
2018-Feb-18 08:04N 48°53' W 005°21'116.3
2018-Feb-18 08:00N 48°52' W 005°22'816.4
2018-Feb-18 07:30N 48°48' W 005°33'815.6
2018-Feb-18 07:00N 48°42' W 005°41'57815.2
2018-Feb-16 16:56N 39°33' W 009°50'715.1
2018-Feb-16 16:29N 39°26' W 009°50'715.3
2018-Feb-16 16:00N 39°18' W 009°50'815.3
2018-Feb-16 15:30N 39°11' W 009°50'815.3
2018-Feb-16 15:00N 39°03' W 009°50'816.0
2018-Feb-16 14:30N 38°55' W 009°50'816.4
2018-Feb-16 14:01N 38°47' W 009°50'816.4
2018-Feb-16 13:30N 38°39' W 009°50'816.4
2018-Feb-16 13:00N 38°30' W 009°50'816.3
2018-Feb-16 12:30N 38°22' W 009°51'816.2
2018-Feb-16 12:00N 38°14' W 009°51'816.2
2018-Feb-16 11:30N 38°06' W 009°51'37516.2
2018-Feb-15 12:24N 31°52' W 010°08'715.8
2018-Feb-15 12:00N 31°45' W 010°09'2716.3
2018-Feb-15 10:21N 31°19' W 010°08'5912.9
2018-Feb-15 05:48N 30°26' W 009°39'0 0.0
2018-Feb-14 23:11N 30°26' W 009°39'  
Track history (hours):
 
Tides and Currents Weather Stations Pressure Air Temp Water Temp Dewpoint Dewpoint Depression Visibility Wind Speed Wind Dir Waves Ship Positions

Andrea

Last reported at 2018-Feb-22 09:59 UTC. Time now 2018-Feb-22 10:39 UTC.
Position N 56°06' E 016°52'.

Length 134 m; draft 7.1 m.

Type: Cargo ship. MMSI: 236481000.

Date/timePositionNaut miles runAvg speedWind from/ knotsBaromVisibWave heightAir tempDewpointWater temp
2018-Feb-22 09:59N 56°06' E 016°52'715.4
2018-Feb-22 09:30N 56°01' E 016°42'815.2
2018-Feb-22 09:00N 55°58' E 016°30'815.1
2018-Feb-22 08:30N 55°54' E 016°18'715.0
2018-Feb-22 08:00N 55°51' E 016°06'714.8
2018-Feb-22 07:31N 55°47' E 015°55'714.9
2018-Feb-22 07:00N 55°44' E 015°43'815.1
2018-Feb-22 06:30N 55°40' E 015°31'715.1
2018-Feb-22 06:00N 55°37' E 015°20'715.0
2018-Feb-22 05:30N 55°33' E 015°09'814.8
2018-Feb-22 04:59N 55°29' E 014°57'714.6
2018-Feb-22 04:30N 55°26' E 014°45'714.1
2018-Feb-22 04:00N 55°22' E 014°36'714.4
2018-Feb-22 03:30N 55°16' E 014°28'714.5
2018-Feb-22 03:00N 55°10' E 014°21'714.5
2018-Feb-22 02:30N 55°04' E 014°13'5514.8
2018-Feb-21 22:48N 54°45' E 012°44'1615.4
2018-Feb-21 21:44N 54°36' E 012°20'415.2
2018-Feb-21 21:30N 54°33' E 012°17'815.4
2018-Feb-21 21:00N 54°26' E 012°12'1515.2
2018-Feb-21 20:02N 54°24' E 011°46'015.8
2018-Feb-21 20:00N 54°24' E 011°46'815.4
2018-Feb-21 19:30N 54°28' E 011°34'815.6
2018-Feb-21 19:00N 54°32' E 011°22'815.1
2018-Feb-21 18:30N 54°35' E 011°10'815.2
2018-Feb-21 18:00N 54°34' E 010°57'815.9
2018-Feb-21 17:30N 54°34' E 010°44'815.6
2018-Feb-21 17:00N 54°32' E 010°30'914.1
2018-Feb-21 16:23N 54°29' E 010°16'13 6.0
2018-Feb-21 14:17N 54°21' E 009°60'2 7.8
2018-Feb-21 13:59N 54°21' E 009°56'4 8.3
2018-Feb-21 13:31N 54°22' E 009°49'4 7.9
2018-Feb-21 13:01N 54°20' E 009°44'4 7.2
2018-Feb-21 12:31N 54°17' E 009°39'2 4.0
2018-Feb-21 11:58N 54°15' E 009°37'3 7.4
2018-Feb-21 11:31N 54°12' E 009°34'3 6.4
2018-Feb-21 11:01N 54°11' E 009°29'4 8.3
2018-Feb-21 10:31N 54°09' E 009°23'3 5.6
2018-Feb-21 10:00N 54°07' E 009°20'4 8.5
2018-Feb-21 09:30N 54°03' E 009°18'4 7.2
2018-Feb-21 09:01N 53°60' E 009°17'4 8.3
2018-Feb-21 08:31N 53°56' E 009°13'4 7.4
2018-Feb-21 08:01N 53°54' E 009°09'0 0.2
2018-Feb-21 07:31N 53°54' E 009°09'2 3.2
2018-Feb-21 07:01N 53°53' E 009°06'3 5.7
2018-Feb-21 06:30N 53°52' E 009°02'713.4
2018-Feb-21 06:00N 53°50' E 008°51'611.7
2018-Feb-21 05:30N 53°53' E 008°42'714.0
2018-Feb-21 05:00N 53°58' E 008°33'714.6
2018-Feb-21 04:30N 53°59' E 008°21'713.8
2018-Feb-21 04:00N 53°60' E 008°09'9215.8
2018-Feb-20 22:11N 53°36' E 005°39'517.4
2018-Feb-20 21:56N 53°35' E 005°32'717.5
2018-Feb-20 21:30N 53°33' E 005°20'918.0
2018-Feb-20 21:00N 53°30' E 005°05'918.0
2018-Feb-20 20:29N 53°27' E 004°51'817.5
2018-Feb-20 20:00N 53°20' E 004°41'918.1
2018-Feb-20 19:30N 53°12' E 004°35'918.2
2018-Feb-20 19:00N 53°05' E 004°27'917.8
2018-Feb-20 18:30N 52°57' E 004°20'917.9
2018-Feb-20 18:00N 52°49' E 004°12'917.4
2018-Feb-20 17:29N 52°41' E 004°04'817.6
2018-Feb-20 17:00N 52°34' E 003°58'917.5
2018-Feb-20 16:30N 52°26' E 003°53'917.3
2018-Feb-20 16:00N 52°17' E 003°52'917.4
2018-Feb-20 15:30N 52°09' E 003°54'713.5
2018-Feb-20 15:00N 52°02' E 003°55'815.1
2018-Feb-20 14:30N 51°59' E 004°06'612.9
2018-Feb-20 14:00N 51°55' E 004°15'611.1
2018-Feb-20 13:30N 51°54' E 004°23'2 3.1
2018-Feb-20 13:00N 51°53' E 004°26'0 0.0
2018-Feb-20 12:30N 51°53' E 004°26'0 0.0
2018-Feb-20 12:00N 51°53' E 004°26'0 0.0
2018-Feb-20 11:30N 51°53' E 004°26'0 0.0
2018-Feb-20 11:00N 51°53' E 004°26'0 0.0
2018-Feb-20 10:30N 51°53' E 004°26'0 0.0
2018-Feb-20 10:00N 51°53' E 004°26'0 0.0
2018-Feb-20 09:30N 51°53' E 004°26'0 0.0
2018-Feb-20 09:00N 51°53' E 004°26'0 0.0
2018-Feb-20 08:30N 51°53' E 004°26'0 0.0
2018-Feb-20 08:00N 51°53' E 004°26'0 0.0
2018-Feb-20 07:30N 51°53' E 004°26'0 0.0
2018-Feb-20 07:00N 51°53' E 004°26'0 0.0
2018-Feb-20 06:30N 51°53' E 004°26'0 0.0
2018-Feb-20 06:00N 51°53' E 004°26'0 0.0
2018-Feb-20 05:30N 51°53' E 004°26'0 0.8
2018-Feb-20 05:00N 51°54' E 004°26'4 7.3
2018-Feb-20 04:30N 51°54' E 004°20'611.8
2018-Feb-20 04:00N 51°56' E 004°12'815.5
2018-Feb-20 03:30N 51°60' E 004°00'713.9
2018-Feb-20 03:00N 52°00' E 003°49'611.8
2018-Feb-20 02:30N 51°58' E 003°40'610.9
2018-Feb-20 01:59N 51°57' E 003°31'510.3
2018-Feb-20 01:30N 51°55' E 003°23'510.3
2018-Feb-20 00:59N 51°53' E 003°15'510.8
2018-Feb-20 00:30N 51°52' E 003°07'711.3
2018-Feb-19 23:55N 51°50' E 002°57'1411.3
2018-Feb-19 22:42N 51°46' E 002°36'211.6
2018-Feb-19 22:30N 51°44' E 002°33'611.5
2018-Feb-19 22:00N 51°40' E 002°27'611.6
2018-Feb-19 21:30N 51°36' E 002°21'611.9
2018-Feb-19 21:00N 51°31' E 002°16'612.3
2018-Feb-19 20:30N 51°25' E 002°12'713.7
2018-Feb-19 20:01N 51°19' E 002°07'713.2
2018-Feb-19 19:30N 51°13' E 002°02'713.5
2018-Feb-19 19:01N 51°10' E 001°52'815.2
2018-Feb-19 18:30N 51°06' E 001°42'816.1
2018-Feb-19 18:00N 51°00' E 001°33'816.2
2018-Feb-19 17:30N 50°53' E 001°26'3415.8
2018-Feb-19 15:20N 50°29' E 000°48'616.9
2018-Feb-19 14:59N 50°28' E 000°38'1116.8
2018-Feb-19 14:19N 50°25' E 000°22'516.9
2018-Feb-19 14:00N 50°24' E 000°14'917.1
2018-Feb-19 13:30N 50°22' E 000°01'917.1
2018-Feb-19 13:00N 50°24' W 000°12'1617.7
2018-Feb-19 12:06N 50°32' W 000°34'217.9
2018-Feb-19 12:00N 50°33' W 000°37'918.1
2018-Feb-19 11:30N 50°38' W 000°48'816.8
2018-Feb-19 11:01N 50°43' W 000°59'611.8
2018-Feb-19 10:31N 50°47' W 001°06'2 4.0
2018-Feb-19 10:01N 50°49' W 001°06'0 0.0
2018-Feb-19 09:28N 50°49' W 001°06'0 0.0
2018-Feb-19 08:58N 50°49' W 001°06'0 0.0
2018-Feb-19 08:28N 50°49' W 001°06'0 0.0
2018-Feb-19 07:58N 50°49' W 001°06'0 0.0
2018-Feb-19 07:28N 50°49' W 001°06'0 0.0
2018-Feb-19 06:58N 50°49' W 001°06'0 0.0
2018-Feb-19 06:28N 50°49' W 001°06'0 0.0
2018-Feb-19 05:58N 50°49' W 001°06'0 0.0
2018-Feb-19 05:28N 50°49' W 001°06'0 0.0
2018-Feb-19 04:58N 50°49' W 001°06'0 0.0
2018-Feb-19 04:28N 50°49' W 001°06'0 0.0
2018-Feb-19 03:58N 50°49' W 001°06'0 0.0
2018-Feb-19 03:28N 50°49' W 001°06'0 0.0
2018-Feb-19 02:58N 50°49' W 001°06'0 0.0
2018-Feb-19 02:28N 50°49' W 001°06'0 0.0
2018-Feb-19 01:58N 50°49' W 001°06'0 0.0
2018-Feb-19 01:28N 50°49' W 001°06'0 0.0
2018-Feb-19 00:58N 50°49' W 001°06'0 0.1
2018-Feb-19 00:30N 50°49' W 001°06'2 3.7
2018-Feb-19 00:00N 50°47' W 001°06'4 8.5
2018-Feb-18 23:30N 50°44' W 001°02'3 6.9
2018-Feb-18 23:00N 50°41' W 000°58'713.8
2018-Feb-18 22:31N 50°34' W 000°58'1916.8
2018-Feb-18 21:23N 50°15' W 000°58'719.5
2018-Feb-18 21:00N 50°13' W 001°08'1019.5
2018-Feb-18 20:31N 50°10' W 001°23'1019.4
2018-Feb-18 20:00N 50°08' W 001°38'714.5
2018-Feb-18 19:31N 50°05' W 001°49'1 2.1
2018-Feb-18 19:00N 50°05' W 001°50'4 7.9
2018-Feb-18 18:30N 50°03' W 001°55'815.7
2018-Feb-18 18:00N 49°59' W 002°06'815.0
2018-Feb-18 17:30N 49°57' W 002°17'714.7
2018-Feb-18 17:01N 49°55' W 002°28'814.5
2018-Feb-18 16:28N 49°52' W 002°39'714.9
2018-Feb-18 16:01N 49°49' W 002°49'1215.1
2018-Feb-18 15:13N 49°43' W 003°05'614.7
2018-Feb-18 14:48N 49°41' W 003°13'414.0
2018-Feb-18 14:30N 49°38' W 003°19'9214.2
2018-Feb-18 08:04N 48°53' W 005°21'116.3
2018-Feb-18 08:00N 48°52' W 005°22'816.4
2018-Feb-18 07:30N 48°48' W 005°33'815.6
2018-Feb-18 07:00N 48°42' W 005°41'57815.2
2018-Feb-16 16:56N 39°33' W 009°50'715.1
2018-Feb-16 16:29N 39°26' W 009°50'715.3
2018-Feb-16 16:00N 39°18' W 009°50'815.3
2018-Feb-16 15:30N 39°11' W 009°50'815.3
2018-Feb-16 15:00N 39°03' W 009°50'816.0
2018-Feb-16 14:30N 38°55' W 009°50'816.4
2018-Feb-16 14:01N 38°47' W 009°50'816.4
2018-Feb-16 13:30N 38°39' W 009°50'816.4
2018-Feb-16 13:00N 38°30' W 009°50'816.3
2018-Feb-16 12:30N 38°22' W 009°51'816.2
2018-Feb-16 12:00N 38°14' W 009°51'816.2
2018-Feb-16 11:30N 38°06' W 009°51'37516.2
2018-Feb-15 12:24N 31°52' W 010°08'715.8
2018-Feb-15 12:00N 31°45' W 010°09'2716.3
2018-Feb-15 10:21N 31°19' W 010°08'5912.9
2018-Feb-15 05:48N 30°26' W 009°39'0 0.0
2018-Feb-14 23:11N 30°26' W 009°39'  

Dump ship's entire track history